Terminal Aerodrome Forecast
Issued by NWS Tampa Bay Area, FL

Home | Current Version | Previous Version | Text Only | Print | Product List | Glossary On
Versions: 1 2 3 4 5 6 7 8 9 10 11 12 13 14 15
000
FTUS42 KTBW 272333
TAFSRQ
TAF
KSRQ 272333Z 2800/2824 14007KT P6SM SCT120 BKN250
     FM280300 VRB04KT P6SM SCT250
     FM281400 16006KT P6SM VCTS SCT035CB BKN120
     FM281800 25007KT P6SM VCTS SCT035CB BKN120=

USA.gov is the U.S. government's official web portal to all federal, state and local government web resources and services.